Terminal Aerodrome Forecast
Issued by NWS

Home | Current Version | Previous Version | Text Only | Print | Product List | Glossary On
Versions: 1 2 3 4 5 6 7 8 9 10 11 12 13 14 15 16 17 18 19
000
FTUS43 KLSX 241452 AAA
TAFCPS
TAF AMD
KCPS 241452Z 2415/2512 18011KT P6SM SCT070
     FM241600 24012G20KT P6SM BKN025
     FM241730 27013G23KT P6SM BKN020
     FM250600 29016G26KT P6SM OVC015=

USA.gov is the U.S. government's official web portal to all federal, state and local government web resources and services.